Weather at Crazy Horse Municipal Airport

Public forecast

Using degrees Fahrenheit for public forecast. Weather courtesy of forecast.io.

Closest aviation weather report (METAR) to Crazy Horse Municipal Airport

Closest report is Pauls Valley Municipal Airport, 11.4 nm (21.1 km) NNW. Retrieved 2022/08/10 04:35 UTC (25 minutes ago):

KPVJ 100435Z AUTO 00000KT 10SM CLR 26/19 A3006 RMK AO2 T02560191

Closest aviation forecast (TAF) to Crazy Horse Municipal Airport

Closest forecast is University of Oklahoma Westheimer Airport, 45.6 nm (84.5 km) NNW. Retrieved 2022-08-10 00:22 UTC (5 hours ago):

TAF KOUN 092320Z 1000/1024 VRB05KT P6SM VCTS BKN060CB TEMPO 1000/1003 VRB20G40KT 4SM TSRA BKN050CB FM100300 12008KT P6SM BKN050 FM101600 05008KT P6SM SCT050